FDX1278 YPPH-VGHS
Flight info
| Callsign | FDX1278 |
|---|---|
| Flight time | N/A |
| Altitude | 32000 |
| Route | AVNEX H16 LM G209 MALBI N752 PLB/N0498F340 G579 VJB A457 BILIK Y506 TEPUS A457 VPG Y351 DUBAX R325 PUT G331 RENOX/N0494F350 G331 DWI/N0497F340 M626 BGO G463 CTG B594 ONEKA G463 DAC |
| Aircraft | B77L/H-SDE1E2E3FGHIJ2J3J4J5M1RWXY/LB1D1 |
Departure
| Time | N/A |
|---|---|
| Airport | Perth International Airport (YPPH) |
Arrival
| Time | 2026-05-04 13:59 |
|---|---|
| Airport | Hazrat Shahjalal International Airport (VGHS) |
| Time | Latitude | Longitude | Altitude | Speed | Heading |
|---|---|---|---|---|---|
| 2026-05-04 09:10 | -8.90605 | 106.57722 | 33865 ft | 491 kts | 342° |
| 2026-05-04 09:11 | -8.84099 | 106.55609 | 33868 ft | 491 kts | 342° |
| 2026-05-04 09:11 | -8.77605 | 106.53501 | 33865 ft | 490 kts | 342° |
| 2026-05-04 09:12 | -8.71155 | 106.51409 | 33867 ft | 490 kts | 342° |
| 2026-05-04 09:14 | -8.45308 | 106.43030 | 33864 ft | 487 kts | 342° |
| 2026-05-04 09:14 | -8.38847 | 106.40937 | 33868 ft | 487 kts | 342° |
| 2026-05-04 09:15 | -8.32385 | 106.38845 | 33868 ft | 488 kts | 342° |
| 2026-05-04 09:15 | -8.25929 | 106.36755 | 33866 ft | 488 kts | 342° |
| 2026-05-04 09:17 | -7.96842 | 106.27303 | 33865 ft | 489 kts | 342° |
| 2026-05-04 09:18 | -7.90365 | 106.25194 | 33866 ft | 489 kts | 342° |
| 2026-05-04 09:18 | -7.83938 | 106.23103 | 33863 ft | 489 kts | 342° |
| 2026-05-04 09:19 | -7.77473 | 106.21000 | 33869 ft | 488 kts | 342° |
| 2026-05-04 09:19 | -7.71013 | 106.18899 | 33868 ft | 488 kts | 342° |
| 2026-05-04 09:20 | -7.64549 | 106.16798 | 33866 ft | 488 kts | 342° |
| 2026-05-04 09:20 | -7.58097 | 106.14701 | 33861 ft | 487 kts | 342° |
| 2026-05-04 09:21 | -7.51646 | 106.12605 | 33861 ft | 487 kts | 343° |
| 2026-05-04 09:21 | -7.45234 | 106.10522 | 33862 ft | 487 kts | 343° |
| 2026-05-04 09:22 | -7.38782 | 106.08428 | 33864 ft | 487 kts | 343° |
| 2026-05-04 09:22 | -7.32328 | 106.06333 | 33861 ft | 487 kts | 343° |
| 2026-05-04 09:23 | -7.25866 | 106.04236 | 33866 ft | 488 kts | 343° |
| 2026-05-04 09:23 | -7.19404 | 106.02140 | 33867 ft | 488 kts | 343° |
| 2026-05-04 09:25 | -6.93501 | 105.93742 | 33873 ft | 491 kts | 343° |
| 2026-05-04 09:26 | -6.87031 | 105.91646 | 33871 ft | 492 kts | 343° |
| 2026-05-04 09:26 | -6.80501 | 105.89556 | 33872 ft | 492 kts | 343° |
| 2026-05-04 09:27 | -6.73967 | 105.87480 | 33873 ft | 493 kts | 343° |
| 2026-05-04 09:27 | -6.67428 | 105.85402 | 33869 ft | 493 kts | 343° |
| 2026-05-04 09:28 | -6.60882 | 105.83319 | 33870 ft | 493 kts | 343° |
| 2026-05-04 09:28 | -6.54381 | 105.81249 | 33871 ft | 493 kts | 343° |
| 2026-05-04 09:29 | -6.47841 | 105.79167 | 33873 ft | 493 kts | 343° |
| 2026-05-04 09:29 | -6.41305 | 105.77087 | 33875 ft | 493 kts | 343° |
| 2026-05-04 09:30 | -6.34769 | 105.75007 | 33874 ft | 493 kts | 343° |
| 2026-05-04 09:30 | -6.28232 | 105.72928 | 33871 ft | 492 kts | 343° |
| 2026-05-04 09:31 | -6.21744 | 105.70865 | 33870 ft | 492 kts | 343° |
| 2026-05-04 09:31 | -6.15218 | 105.68790 | 33873 ft | 492 kts | 343° |
| 2026-05-04 09:32 | -6.08690 | 105.66716 | 33869 ft | 492 kts | 343° |
| 2026-05-04 09:34 | -5.82598 | 105.58429 | 33865 ft | 494 kts | 343° |
| 2026-05-04 09:34 | -5.76034 | 105.56346 | 33866 ft | 495 kts | 343° |
| 2026-05-04 09:35 | -5.69464 | 105.54261 | 33862 ft | 496 kts | 343° |
| 2026-05-04 09:35 | -5.62875 | 105.52170 | 33860 ft | 497 kts | 343° |
| 2026-05-04 09:37 | -5.36497 | 105.43806 | 33853 ft | 499 kts | 343° |
| 2026-05-04 09:38 | -5.29861 | 105.41704 | 33845 ft | 499 kts | 343° |
| 2026-05-04 09:38 | -5.23282 | 105.39619 | 33844 ft | 499 kts | 343° |
| 2026-05-04 09:39 | -5.16656 | 105.37520 | 33838 ft | 499 kts | 343° |
| 2026-05-04 09:39 | -5.10039 | 105.35425 | 33842 ft | 499 kts | 343° |
| 2026-05-04 09:40 | -5.03430 | 105.33332 | 33840 ft | 499 kts | 343° |
| 2026-05-04 09:40 | -4.96812 | 105.31238 | 33844 ft | 498 kts | 343° |
| 2026-05-04 09:42 | -4.70406 | 105.22883 | 33844 ft | 499 kts | 343° |
| 2026-05-04 09:43 | -4.63781 | 105.20788 | 33842 ft | 499 kts | 343° |
| 2026-05-04 09:43 | -4.57158 | 105.18694 | 33848 ft | 499 kts | 343° |
| 2026-05-04 09:44 | -4.50583 | 105.16616 | 33846 ft | 499 kts | 343° |
| 2026-05-04 09:46 | -4.24081 | 105.08243 | 33850 ft | 500 kts | 343° |
| 2026-05-04 09:46 | -4.17442 | 105.06146 | 33848 ft | 500 kts | 343° |
| 2026-05-04 09:47 | -4.10802 | 105.04050 | 33849 ft | 500 kts | 343° |
| 2026-05-04 09:49 | -3.84380 | 104.95710 | 33851 ft | 500 kts | 343° |
| 2026-05-04 09:51 | -3.61212 | 104.88402 | 33856 ft | 500 kts | 343° |
| 2026-05-04 09:51 | -3.54576 | 104.86310 | 33852 ft | 500 kts | 343° |
| 2026-05-04 09:52 | -3.47987 | 104.84233 | 33853 ft | 500 kts | 343° |
| 2026-05-04 09:52 | -3.41349 | 104.82140 | 33854 ft | 500 kts | 343° |
| 2026-05-04 09:53 | -3.34698 | 104.80044 | 33857 ft | 501 kts | 343° |
| 2026-05-04 09:53 | -3.28054 | 104.77950 | 33858 ft | 501 kts | 343° |
| 2026-05-04 09:54 | -3.21453 | 104.75870 | 33858 ft | 501 kts | 343° |
| 2026-05-04 09:54 | -3.14804 | 104.73775 | 33860 ft | 501 kts | 343° |
| 2026-05-04 09:55 | -3.08152 | 104.71680 | 33859 ft | 501 kts | 343° |
| 2026-05-04 09:55 | -3.01503 | 104.69585 | 33857 ft | 501 kts | 343° |
| 2026-05-04 09:56 | -2.94894 | 104.67503 | 33848 ft | 502 kts | 343° |
| 2026-05-04 09:56 | -2.88230 | 104.65426 | 33860 ft | 501 kts | 346° |
| 2026-05-04 09:57 | -2.81431 | 104.63981 | 33868 ft | 499 kts | 351° |
| 2026-05-04 09:57 | -2.74592 | 104.62745 | 33855 ft | 500 kts | 351° |
| 2026-05-04 09:58 | -2.67747 | 104.61492 | 33859 ft | 500 kts | 351° |
| 2026-05-04 09:58 | -2.60955 | 104.60220 | 33852 ft | 500 kts | 350° |
| 2026-05-04 10:00 | -2.33632 | 104.55057 | 33855 ft | 501 kts | 350° |
| 2026-05-04 10:04 | -1.85719 | 104.46019 | 33847 ft | 500 kts | 350° |
| 2026-05-04 10:04 | -1.78936 | 104.44740 | 33852 ft | 499 kts | 350° |
| 2026-05-04 10:05 | -1.72108 | 104.43452 | 33853 ft | 499 kts | 351° |
| 2026-05-04 10:05 | -1.65294 | 104.42168 | 33856 ft | 498 kts | 351° |
| 2026-05-04 10:06 | -1.58482 | 104.40883 | 33849 ft | 498 kts | 351° |
| 2026-05-04 10:06 | -1.51669 | 104.39599 | 33851 ft | 498 kts | 350° |
| 2026-05-04 10:08 | -1.27873 | 104.35113 | 33853 ft | 499 kts | 350° |
| 2026-05-04 10:08 | -1.21081 | 104.33833 | 33855 ft | 500 kts | 350° |
| 2026-05-04 10:09 | -1.14234 | 104.32543 | 33855 ft | 501 kts | 350° |
| 2026-05-04 10:09 | -1.07382 | 104.31252 | 33854 ft | 502 kts | 350° |
| 2026-05-04 10:10 | -1.00506 | 104.29956 | 33851 ft | 503 kts | 350° |
| 2026-05-04 10:10 | -0.93677 | 104.28669 | 33857 ft | 503 kts | 350° |
| 2026-05-04 10:11 | -0.86790 | 104.27371 | 33854 ft | 504 kts | 350° |
| 2026-05-04 10:11 | -0.79902 | 104.26073 | 33858 ft | 504 kts | 350° |
| 2026-05-04 10:12 | -0.73000 | 104.24772 | 33854 ft | 504 kts | 351° |
| 2026-05-04 10:12 | -0.66108 | 104.23473 | 33853 ft | 504 kts | 351° |
| 2026-05-04 10:13 | -0.59216 | 104.22175 | 33852 ft | 503 kts | 351° |
| 2026-05-04 10:13 | -0.52394 | 104.20868 | 33854 ft | 502 kts | 350° |
| 2026-05-04 10:14 | -0.45547 | 104.19499 | 33857 ft | 501 kts | 350° |
| 2026-05-04 10:16 | -0.18394 | 104.14086 | 33853 ft | 497 kts | 350° |
| 2026-05-04 10:16 | -0.11613 | 104.12738 | 33850 ft | 497 kts | 350° |
| 2026-05-04 10:17 | -0.04819 | 104.11387 | 33852 ft | 498 kts | 350° |
| 2026-05-04 10:19 | 0.22427 | 104.05969 | 33851 ft | 501 kts | 350° |
| 2026-05-04 10:19 | 0.29272 | 104.04610 | 33855 ft | 502 kts | 350° |
| 2026-05-04 10:20 | 0.36085 | 104.03272 | 33853 ft | 502 kts | 350° |
| 2026-05-04 10:20 | 0.42945 | 104.01926 | 33856 ft | 503 kts | 350° |
| 2026-05-04 10:21 | 0.49809 | 104.00577 | 33855 ft | 503 kts | 350° |
| 2026-05-04 10:21 | 0.56676 | 103.99227 | 33854 ft | 503 kts | 350° |
| 2026-05-04 10:22 | 0.66919 | 103.97178 | 33854 ft | 503 kts | 350° |
| 2026-05-04 10:23 | 0.73778 | 103.95802 | 33852 ft | 503 kts | 349° |
| 2026-05-04 10:25 | 1.01107 | 103.89970 | 33852 ft | 503 kts | 349° |
| 2026-05-04 10:25 | 1.07955 | 103.88534 | 33847 ft | 503 kts | 349° |
| 2026-05-04 10:26 | 1.14809 | 103.87097 | 33850 ft | 503 kts | 349° |
| 2026-05-04 10:26 | 1.21585 | 103.85550 | 33844 ft | 504 kts | 343° |
| 2026-05-04 10:27 | 1.27978 | 103.82697 | 33861 ft | 505 kts | 332° |
| 2026-05-04 10:27 | 1.34150 | 103.79324 | 33859 ft | 505 kts | 333° |
| 2026-05-04 10:28 | 1.40396 | 103.76102 | 33857 ft | 505 kts | 334° |
| 2026-05-04 10:28 | 1.46607 | 103.72918 | 33852 ft | 505 kts | 334° |
| 2026-05-04 10:29 | 1.53037 | 103.70145 | 33829 ft | 503 kts | 344° |
| 2026-05-04 10:29 | 1.59740 | 103.68165 | 33832 ft | 503 kts | 345° |
| 2026-05-04 10:29 | 1.63021 | 103.66973 | 33817 ft | 502 kts | 333° |
| 2026-05-04 10:30 | 1.64985 | 103.65759 | 33833 ft | 503 kts | 323° |
| 2026-05-04 10:30 | 1.67527 | 103.63353 | 33840 ft | 505 kts | 310° |
| 2026-05-04 10:30 | 1.69444 | 103.60412 | 33824 ft | 505 kts | 296° |
| 2026-05-04 10:31 | 1.72904 | 103.53010 | 33837 ft | 507 kts | 296° |
| 2026-05-04 10:32 | 1.83811 | 103.30716 | 33839 ft | 513 kts | 297° |
| 2026-05-04 10:33 | 1.86950 | 103.24326 | 33841 ft | 512 kts | 296° |
| 2026-05-04 10:33 | 1.89556 | 103.19009 | 33840 ft | 512 kts | 296° |
| 2026-05-04 10:34 | 1.92680 | 103.12635 | 33839 ft | 510 kts | 296° |
| 2026-05-04 10:34 | 1.95800 | 103.06269 | 33841 ft | 509 kts | 296° |
| 2026-05-04 10:35 | 1.98916 | 102.99909 | 33840 ft | 509 kts | 296° |
| 2026-05-04 10:35 | 2.02007 | 102.93599 | 33847 ft | 508 kts | 296° |
| 2026-05-04 10:36 | 2.05115 | 102.87256 | 33845 ft | 508 kts | 296° |
| 2026-05-04 10:36 | 2.08204 | 102.80901 | 33844 ft | 508 kts | 296° |
| 2026-05-04 10:37 | 2.11289 | 102.74533 | 33848 ft | 508 kts | 296° |
| 2026-05-04 10:37 | 2.14354 | 102.68213 | 33850 ft | 509 kts | 296° |
| 2026-05-04 10:39 | 2.26991 | 102.47010 | 33840 ft | 507 kts | 302° |
| 2026-05-04 10:40 | 2.30689 | 102.41054 | 33836 ft | 507 kts | 302° |
| 2026-05-04 10:40 | 2.34408 | 102.35059 | 33835 ft | 507 kts | 302° |
| 2026-05-04 10:41 | 2.38127 | 102.29072 | 33834 ft | 507 kts | 302° |
| 2026-05-04 10:41 | 2.41855 | 102.23083 | 33832 ft | 507 kts | 302° |
| 2026-05-04 10:42 | 2.45582 | 102.17095 | 33835 ft | 507 kts | 302° |
| 2026-05-04 10:42 | 2.49308 | 102.11104 | 33833 ft | 507 kts | 302° |
| 2026-05-04 10:43 | 2.53011 | 102.05150 | 33833 ft | 508 kts | 302° |
| 2026-05-04 10:45 | 2.67853 | 101.81157 | 33811 ft | 508 kts | 302° |
| 2026-05-04 10:45 | 2.71577 | 101.75140 | 33802 ft | 508 kts | 303° |
| 2026-05-04 10:46 | 2.75779 | 101.69470 | 33809 ft | 507 kts | 310° |
| 2026-05-04 10:46 | 2.80273 | 101.64032 | 33806 ft | 507 kts | 310° |
| 2026-05-04 10:47 | 2.84726 | 101.58617 | 33807 ft | 508 kts | 310° |
| 2026-05-04 10:47 | 2.89182 | 101.53137 | 33815 ft | 508 kts | 310° |
| 2026-05-04 10:49 | 3.06936 | 101.31233 | 33836 ft | 507 kts | 310° |
| 2026-05-04 10:50 | 3.11400 | 101.25766 | 33842 ft | 507 kts | 313° |
| 2026-05-04 10:51 | 3.32503 | 101.13724 | 33848 ft | 504 kts | 336° |
| 2026-05-04 10:52 | 3.35700 | 101.12266 | 33845 ft | 505 kts | 336° |
| 2026-05-04 10:52 | 3.42104 | 101.09376 | 33849 ft | 505 kts | 337° |
| 2026-05-04 10:54 | 3.67739 | 100.97859 | 33844 ft | 506 kts | 337° |
| 2026-05-04 10:56 | 3.93441 | 100.86410 | 33846 ft | 505 kts | 337° |
| 2026-05-04 10:57 | 3.99819 | 100.83566 | 33842 ft | 505 kts | 337° |
| 2026-05-04 10:57 | 4.06229 | 100.80707 | 33831 ft | 505 kts | 337° |
| 2026-05-04 10:58 | 4.12645 | 100.77844 | 33830 ft | 505 kts | 337° |
| 2026-05-04 10:58 | 4.19019 | 100.75000 | 33829 ft | 505 kts | 336° |
| 2026-05-04 10:59 | 4.25432 | 100.72127 | 33826 ft | 505 kts | 336° |
| 2026-05-04 10:59 | 4.31855 | 100.69245 | 33833 ft | 505 kts | 336° |
| 2026-05-04 11:00 | 4.38272 | 100.66366 | 33833 ft | 506 kts | 336° |
| 2026-05-04 11:02 | 4.63957 | 100.54839 | 33843 ft | 507 kts | 336° |
| 2026-05-04 11:05 | 5.12246 | 100.33143 | 33820 ft | 508 kts | 336° |
| 2026-05-04 11:06 | 5.18697 | 100.30241 | 33827 ft | 508 kts | 336° |
| 2026-05-04 11:06 | 5.25181 | 100.27413 | 33832 ft | 508 kts | 341° |
| 2026-05-04 11:08 | 5.49462 | 100.23636 | 33810 ft | 507 kts | 354° |
| 2026-05-04 11:10 | 5.73921 | 100.20833 | 33822 ft | 506 kts | 354° |
| 2026-05-04 11:12 | 6.01792 | 100.17561 | 33837 ft | 504 kts | 354° |
| 2026-05-04 11:12 | 6.08749 | 100.16745 | 33840 ft | 503 kts | 354° |
| 2026-05-04 11:13 | 6.15710 | 100.15929 | 33838 ft | 503 kts | 354° |
| 2026-05-04 11:13 | 6.22615 | 100.15118 | 33833 ft | 503 kts | 354° |
| 2026-05-04 11:14 | 6.29558 | 100.14303 | 33837 ft | 502 kts | 354° |
| 2026-05-04 11:16 | 6.53118 | 100.01901 | 33846 ft | 503 kts | 311° |
| 2026-05-04 11:16 | 6.57778 | 99.96630 | 33847 ft | 505 kts | 312° |
| 2026-05-04 11:17 | 6.62506 | 99.91380 | 33844 ft | 507 kts | 312° |
| 2026-05-04 11:19 | 6.81478 | 99.70425 | 33839 ft | 506 kts | 312° |
| 2026-05-04 11:19 | 6.86213 | 99.65188 | 33839 ft | 505 kts | 312° |
| 2026-05-04 11:20 | 6.90939 | 99.59956 | 33839 ft | 505 kts | 312° |
| 2026-05-04 11:20 | 6.95626 | 99.54768 | 33838 ft | 504 kts | 312° |
| 2026-05-04 11:22 | 7.14754 | 99.34203 | 33844 ft | 504 kts | 313° |
| 2026-05-04 11:23 | 7.19574 | 99.29070 | 33840 ft | 505 kts | 313° |
| 2026-05-04 11:25 | 7.36431 | 99.11085 | 33849 ft | 505 kts | 313° |
| 2026-05-04 11:25 | 7.41257 | 99.05932 | 33848 ft | 505 kts | 313° |
| 2026-05-04 11:27 | 7.62841 | 98.82866 | 33839 ft | 499 kts | 313° |
| 2026-05-04 11:28 | 7.67591 | 98.77786 | 33837 ft | 497 kts | 313° |
| 2026-05-04 11:28 | 7.72290 | 98.72754 | 33837 ft | 496 kts | 313° |
| 2026-05-04 11:29 | 7.76965 | 98.67658 | 33834 ft | 495 kts | 313° |
| 2026-05-04 11:29 | 7.81669 | 98.62579 | 33836 ft | 495 kts | 313° |
| 2026-05-04 11:33 | 8.16931 | 98.30452 | 33818 ft | 497 kts | 358° |
| 2026-05-04 11:33 | 8.23823 | 98.30469 | 33834 ft | 497 kts | 1° |
| 2026-05-04 11:34 | 8.30748 | 98.30498 | 33835 ft | 499 kts | 0° |
| 2026-05-04 11:34 | 8.37654 | 98.30449 | 33837 ft | 501 kts | 359° |
| 2026-05-04 11:35 | 8.44631 | 98.30372 | 33842 ft | 501 kts | 360° |
| 2026-05-04 11:35 | 8.51604 | 98.30299 | 33842 ft | 501 kts | 360° |
| 2026-05-04 11:36 | 8.58577 | 98.30230 | 33843 ft | 500 kts | 360° |
| 2026-05-04 11:36 | 8.65532 | 98.30161 | 33843 ft | 499 kts | 360° |
| 2026-05-04 11:37 | 8.72422 | 98.30093 | 33847 ft | 498 kts | 0° |
| 2026-05-04 11:37 | 8.79334 | 98.30024 | 33847 ft | 496 kts | 0° |
| 2026-05-04 11:38 | 8.86227 | 98.29956 | 33849 ft | 495 kts | 0° |
| 2026-05-04 11:38 | 8.93122 | 98.29888 | 33851 ft | 495 kts | 0° |
| 2026-05-04 11:39 | 8.99959 | 98.29820 | 33852 ft | 495 kts | 360° |
| 2026-05-04 11:41 | 9.24122 | 98.29589 | 33855 ft | 498 kts | 360° |
| 2026-05-04 11:41 | 9.30998 | 98.29528 | 33854 ft | 498 kts | 360° |
| 2026-05-04 11:42 | 9.37944 | 98.29466 | 33854 ft | 499 kts | 360° |
| 2026-05-04 11:42 | 9.44885 | 98.29403 | 33849 ft | 499 kts | 360° |
| 2026-05-04 11:43 | 9.51820 | 98.29340 | 33851 ft | 499 kts | 360° |
| 2026-05-04 11:43 | 9.58760 | 98.29276 | 33852 ft | 498 kts | 360° |
| 2026-05-04 11:44 | 9.65642 | 98.29214 | 33847 ft | 498 kts | 360° |
| 2026-05-04 11:44 | 9.72574 | 98.29151 | 33849 ft | 498 kts | 359° |
| 2026-05-04 11:45 | 9.79496 | 98.29088 | 33849 ft | 498 kts | 360° |
| 2026-05-04 11:45 | 9.86427 | 98.29025 | 33853 ft | 498 kts | 360° |
| 2026-05-04 11:46 | 9.93319 | 98.28963 | 33846 ft | 499 kts | 360° |
| 2026-05-04 11:46 | 10.00264 | 98.28899 | 33845 ft | 499 kts | 360° |
| 2026-05-04 11:47 | 10.07212 | 98.28783 | 33843 ft | 500 kts | 359° |
| 2026-05-04 11:47 | 10.14167 | 98.28624 | 33848 ft | 500 kts | 359° |
| 2026-05-04 11:48 | 10.21077 | 98.28469 | 33843 ft | 500 kts | 359° |
| 2026-05-04 11:48 | 10.28041 | 98.28321 | 33848 ft | 501 kts | 359° |
| 2026-05-04 11:49 | 10.35004 | 98.28177 | 33846 ft | 501 kts | 359° |
| 2026-05-04 11:49 | 10.41968 | 98.28032 | 33846 ft | 501 kts | 359° |
| 2026-05-04 11:50 | 10.48937 | 98.27888 | 33847 ft | 501 kts | 359° |
| 2026-05-04 11:50 | 10.55859 | 98.27744 | 33844 ft | 501 kts | 359° |
| 2026-05-04 11:51 | 10.62818 | 98.27599 | 33843 ft | 501 kts | 359° |
| 2026-05-04 11:51 | 10.69788 | 98.27454 | 33847 ft | 501 kts | 359° |
| 2026-05-04 11:52 | 10.76752 | 98.27309 | 33848 ft | 501 kts | 359° |
| 2026-05-04 11:52 | 10.83724 | 98.27164 | 33849 ft | 501 kts | 359° |
| 2026-05-04 11:53 | 10.90645 | 98.27019 | 33846 ft | 501 kts | 359° |
| 2026-05-04 11:53 | 10.97624 | 98.26873 | 33847 ft | 501 kts | 359° |
| 2026-05-04 11:55 | 11.25501 | 98.26291 | 33848 ft | 502 kts | 359° |
| 2026-05-04 11:56 | 11.32490 | 98.26145 | 33849 ft | 503 kts | 359° |
| 2026-05-04 11:56 | 11.39440 | 98.25999 | 33846 ft | 503 kts | 359° |
| 2026-05-04 11:57 | 11.46434 | 98.25853 | 33847 ft | 503 kts | 359° |
| 2026-05-04 11:57 | 11.53426 | 98.25707 | 33846 ft | 503 kts | 359° |
| 2026-05-04 11:58 | 11.60417 | 98.25560 | 33846 ft | 503 kts | 359° |
| 2026-05-04 11:58 | 11.67411 | 98.25413 | 33848 ft | 503 kts | 359° |
| 2026-05-04 11:59 | 11.74361 | 98.25268 | 33844 ft | 503 kts | 358° |
| 2026-05-04 11:59 | 11.81356 | 98.25121 | 33849 ft | 503 kts | 358° |
| 2026-05-04 12:00 | 11.88350 | 98.24974 | 33849 ft | 502 kts | 358° |
| 2026-05-04 12:00 | 11.95343 | 98.24827 | 33852 ft | 502 kts | 358° |
| 2026-05-04 12:01 | 12.02284 | 98.24681 | 33849 ft | 502 kts | 358° |
| 2026-05-04 12:02 | 12.26722 | 98.24167 | 33850 ft | 501 kts | 358° |
| 2026-05-04 12:03 | 12.33690 | 98.24020 | 33849 ft | 500 kts | 358° |
| 2026-05-04 12:03 | 12.40608 | 98.23874 | 33848 ft | 500 kts | 358° |
| 2026-05-04 12:04 | 12.47556 | 98.23728 | 33846 ft | 499 kts | 358° |
| 2026-05-04 12:04 | 12.54495 | 98.23582 | 33857 ft | 499 kts | 358° |
| 2026-05-04 12:05 | 12.61425 | 98.23435 | 33856 ft | 498 kts | 358° |
| 2026-05-04 12:05 | 12.68306 | 98.23290 | 33850 ft | 497 kts | 357° |
| 2026-05-04 12:06 | 12.75218 | 98.23144 | 33854 ft | 496 kts | 357° |
| 2026-05-04 12:06 | 12.82119 | 98.22998 | 33850 ft | 496 kts | 357° |
| 2026-05-04 12:07 | 12.89008 | 98.22852 | 33852 ft | 495 kts | 357° |
| 2026-05-04 12:07 | 12.95897 | 98.22706 | 33849 ft | 495 kts | 357° |
| 2026-05-04 12:08 | 13.02727 | 98.22561 | 33854 ft | 494 kts | 357° |
| 2026-05-04 12:08 | 13.09606 | 98.22416 | 33851 ft | 494 kts | 357° |
| 2026-05-04 12:09 | 13.16478 | 98.22270 | 33853 ft | 495 kts | 357° |
| 2026-05-04 12:09 | 13.23365 | 98.22124 | 33856 ft | 495 kts | 357° |
| 2026-05-04 12:10 | 13.30248 | 98.21977 | 33860 ft | 495 kts | 357° |
| 2026-05-04 12:10 | 13.37084 | 98.21832 | 33856 ft | 495 kts | 357° |
| 2026-05-04 12:11 | 13.43967 | 98.21686 | 33857 ft | 495 kts | 357° |
| 2026-05-04 12:11 | 13.50851 | 98.21575 | 33860 ft | 495 kts | 357° |
| 2026-05-04 12:12 | 13.57746 | 98.21480 | 33861 ft | 495 kts | 357° |
| 2026-05-04 12:12 | 13.64583 | 98.21383 | 33863 ft | 495 kts | 357° |
| 2026-05-04 12:14 | 13.92139 | 98.20970 | 33873 ft | 496 kts | 357° |
| 2026-05-04 12:15 | 13.98991 | 98.20867 | 33869 ft | 496 kts | 357° |
| 2026-05-04 12:15 | 14.05890 | 98.20707 | 33867 ft | 495 kts | 353° |
| 2026-05-04 12:16 | 14.12576 | 98.19221 | 33877 ft | 491 kts | 339° |
| 2026-05-04 12:16 | 14.18764 | 98.16301 | 33873 ft | 489 kts | 330° |
| 2026-05-04 12:17 | 14.24745 | 98.13061 | 33864 ft | 490 kts | 330° |
| 2026-05-04 12:17 | 14.30797 | 98.09819 | 33867 ft | 490 kts | 331° |
| 2026-05-04 12:18 | 14.36872 | 98.06611 | 33863 ft | 491 kts | 331° |
| 2026-05-04 12:18 | 14.42957 | 98.03409 | 33861 ft | 491 kts | 331° |
| 2026-05-04 12:19 | 14.49061 | 98.00192 | 34147 ft | 494 kts | 331° |
| 2026-05-04 12:19 | 14.52073 | 97.98603 | 34495 ft | 492 kts | 331° |
| 2026-05-04 12:19 | 14.55109 | 97.97001 | 34830 ft | 490 kts | 331° |
| 2026-05-04 12:20 | 14.61202 | 97.93783 | 34859 ft | 492 kts | 331° |
| 2026-05-04 12:20 | 14.67260 | 97.90582 | 34853 ft | 487 kts | 331° |
| 2026-05-04 12:21 | 14.73286 | 97.87394 | 34850 ft | 486 kts | 331° |
| 2026-05-04 12:21 | 14.79258 | 97.84232 | 34836 ft | 486 kts | 331° |
| 2026-05-04 12:22 | 14.85271 | 97.81044 | 34848 ft | 486 kts | 331° |
| 2026-05-04 12:22 | 14.91289 | 97.77852 | 34833 ft | 487 kts | 331° |
| 2026-05-04 12:23 | 14.97322 | 97.74651 | 34849 ft | 487 kts | 331° |
| 2026-05-04 12:23 | 15.03351 | 97.71444 | 34841 ft | 488 kts | 331° |
| 2026-05-04 12:24 | 15.09345 | 97.68253 | 34841 ft | 488 kts | 331° |
| 2026-05-04 12:24 | 15.15382 | 97.65037 | 34839 ft | 488 kts | 331° |
| 2026-05-04 12:25 | 15.21415 | 97.61821 | 34838 ft | 488 kts | 331° |
| 2026-05-04 12:25 | 15.27445 | 97.58604 | 34827 ft | 488 kts | 331° |
| 2026-05-04 12:26 | 15.33439 | 97.55405 | 34828 ft | 488 kts | 331° |
| 2026-05-04 12:26 | 15.39474 | 97.52181 | 34838 ft | 488 kts | 331° |
| 2026-05-04 12:27 | 15.45514 | 97.48958 | 34837 ft | 488 kts | 332° |
| 2026-05-04 12:27 | 15.51592 | 97.45810 | 34825 ft | 489 kts | 332° |
| 2026-05-04 12:28 | 15.57649 | 97.42710 | 34826 ft | 489 kts | 332° |
| 2026-05-04 12:28 | 15.63751 | 97.39576 | 34828 ft | 489 kts | 332° |
| 2026-05-04 12:29 | 15.69839 | 97.36435 | 34840 ft | 489 kts | 332° |
| 2026-05-04 12:29 | 15.75941 | 97.33282 | 34826 ft | 490 kts | 332° |
| 2026-05-04 12:30 | 15.82046 | 97.30125 | 34823 ft | 490 kts | 332° |
| 2026-05-04 12:30 | 15.88105 | 97.26990 | 34834 ft | 490 kts | 332° |
| 2026-05-04 12:31 | 15.94207 | 97.23830 | 34831 ft | 490 kts | 332° |
| 2026-05-04 12:31 | 16.00323 | 97.20662 | 34830 ft | 491 kts | 332° |
| 2026-05-04 12:32 | 16.09473 | 97.15918 | 34829 ft | 491 kts | 332° |
| 2026-05-04 12:33 | 16.15547 | 97.12766 | 34833 ft | 490 kts | 332° |
| 2026-05-04 12:33 | 16.21656 | 97.09593 | 34825 ft | 490 kts | 332° |
| 2026-05-04 12:34 | 16.27761 | 97.06421 | 34823 ft | 490 kts | 332° |
| 2026-05-04 12:34 | 16.33865 | 97.03247 | 34826 ft | 490 kts | 332° |
| 2026-05-04 12:35 | 16.39922 | 97.00095 | 34830 ft | 490 kts | 332° |
| 2026-05-04 12:35 | 16.46024 | 96.96917 | 34833 ft | 490 kts | 332° |
| 2026-05-04 12:36 | 16.52119 | 96.93740 | 34830 ft | 490 kts | 332° |
| 2026-05-04 12:36 | 16.58210 | 96.90564 | 34829 ft | 490 kts | 332° |
| 2026-05-04 12:37 | 16.64261 | 96.87406 | 34829 ft | 489 kts | 332° |
| 2026-05-04 12:37 | 16.70343 | 96.84230 | 34824 ft | 489 kts | 332° |
| 2026-05-04 12:38 | 16.76429 | 96.81049 | 34821 ft | 489 kts | 332° |
| 2026-05-04 12:38 | 16.82508 | 96.77870 | 34821 ft | 489 kts | 332° |
| 2026-05-04 12:39 | 16.88543 | 96.74711 | 34821 ft | 488 kts | 332° |
| 2026-05-04 12:39 | 16.94611 | 96.71532 | 34818 ft | 488 kts | 332° |
| 2026-05-04 12:40 | 17.00684 | 96.68349 | 34822 ft | 488 kts | 332° |
| 2026-05-04 12:40 | 17.06752 | 96.65166 | 34817 ft | 488 kts | 332° |
| 2026-05-04 12:41 | 17.12779 | 96.62003 | 34813 ft | 488 kts | 332° |
| 2026-05-04 12:41 | 17.18843 | 96.58817 | 34815 ft | 488 kts | 332° |
| 2026-05-04 12:42 | 17.24902 | 96.55631 | 34810 ft | 488 kts | 332° |
| 2026-05-04 12:42 | 17.30870 | 96.52280 | 34810 ft | 486 kts | 326° |
| 2026-05-04 12:43 | 17.36224 | 96.47992 | 34816 ft | 484 kts | 317° |
| 2026-05-04 12:43 | 17.41173 | 96.43289 | 34811 ft | 484 kts | 316° |
| 2026-05-04 12:44 | 17.46149 | 96.38542 | 34810 ft | 484 kts | 316° |
| 2026-05-04 12:44 | 17.51143 | 96.33818 | 34813 ft | 483 kts | 316° |
| 2026-05-04 12:45 | 17.56143 | 96.29108 | 34810 ft | 483 kts | 316° |
| 2026-05-04 12:45 | 17.61105 | 96.24435 | 34812 ft | 482 kts | 316° |
| 2026-05-04 12:46 | 17.66088 | 96.19736 | 34808 ft | 482 kts | 316° |
| 2026-05-04 12:46 | 17.71069 | 96.15034 | 34810 ft | 481 kts | 316° |
| 2026-05-04 12:47 | 17.76044 | 96.10334 | 34810 ft | 481 kts | 316° |
| 2026-05-04 12:47 | 17.81010 | 96.05639 | 34820 ft | 481 kts | 316° |
| 2026-05-04 12:48 | 17.85944 | 96.00970 | 34814 ft | 481 kts | 316° |
| 2026-05-04 12:48 | 17.90915 | 95.96262 | 34811 ft | 481 kts | 316° |
| 2026-05-04 12:49 | 17.95880 | 95.91556 | 34814 ft | 481 kts | 316° |
| 2026-05-04 12:49 | 18.00852 | 95.86841 | 34811 ft | 481 kts | 316° |
| 2026-05-04 12:50 | 18.05779 | 95.82164 | 34811 ft | 481 kts | 316° |
| 2026-05-04 12:50 | 18.10745 | 95.77447 | 34814 ft | 481 kts | 316° |
| 2026-05-04 12:51 | 18.15706 | 95.72730 | 34805 ft | 481 kts | 316° |
| 2026-05-04 12:51 | 18.20663 | 95.68013 | 34810 ft | 480 kts | 315° |
| 2026-05-04 12:52 | 18.25612 | 95.63299 | 34810 ft | 480 kts | 315° |
| 2026-05-04 12:52 | 18.30529 | 95.58614 | 34806 ft | 480 kts | 315° |
| 2026-05-04 12:53 | 18.35482 | 95.53889 | 34808 ft | 480 kts | 315° |
| 2026-05-04 12:53 | 18.40427 | 95.49167 | 34811 ft | 480 kts | 315° |
| 2026-05-04 12:54 | 18.45365 | 95.44450 | 34812 ft | 480 kts | 315° |
| 2026-05-04 12:54 | 18.50344 | 95.39838 | 34812 ft | 480 kts | 317° |
| 2026-05-04 12:55 | 18.55397 | 95.35242 | 34810 ft | 480 kts | 317° |
| 2026-05-04 12:55 | 18.60442 | 95.30638 | 34815 ft | 480 kts | 316° |
| 2026-05-04 12:56 | 18.65474 | 95.26021 | 34820 ft | 479 kts | 316° |
| 2026-05-04 12:56 | 18.70467 | 95.21430 | 34818 ft | 479 kts | 316° |
| 2026-05-04 12:57 | 18.75492 | 95.16806 | 34824 ft | 479 kts | 316° |
| 2026-05-04 12:57 | 18.80517 | 95.12179 | 34828 ft | 479 kts | 316° |
| 2026-05-04 12:58 | 18.85536 | 95.07554 | 34830 ft | 479 kts | 316° |
| 2026-05-04 12:58 | 18.90556 | 95.02924 | 34837 ft | 479 kts | 316° |
| 2026-05-04 12:59 | 18.95544 | 94.98321 | 34842 ft | 479 kts | 316° |
| 2026-05-04 12:59 | 19.00565 | 94.93682 | 34847 ft | 479 kts | 316° |
| 2026-05-04 13:00 | 19.05580 | 94.89046 | 34854 ft | 479 kts | 316° |
| 2026-05-04 13:00 | 19.10593 | 94.84406 | 34859 ft | 479 kts | 316° |
| 2026-05-04 13:01 | 19.15571 | 94.79795 | 34861 ft | 479 kts | 316° |
| 2026-05-04 13:01 | 19.20585 | 94.75148 | 34869 ft | 479 kts | 316° |
| 2026-05-04 13:02 | 19.25591 | 94.70504 | 34869 ft | 479 kts | 316° |
| 2026-05-04 13:02 | 19.30558 | 94.65804 | 34871 ft | 479 kts | 316° |
| 2026-05-04 13:03 | 19.35452 | 94.61096 | 34876 ft | 479 kts | 315° |
| 2026-05-04 13:03 | 19.40382 | 94.56352 | 34890 ft | 479 kts | 316° |
| 2026-05-04 13:04 | 19.45320 | 94.51608 | 34886 ft | 479 kts | 315° |
| 2026-05-04 13:04 | 19.49421 | 94.47670 | 34894 ft | 478 kts | 316° |
| 2026-05-04 13:05 | 19.55149 | 94.42168 | 34895 ft | 478 kts | 316° |
| 2026-05-04 13:05 | 19.60079 | 94.37427 | 34901 ft | 479 kts | 316° |
| 2026-05-04 13:06 | 19.65010 | 94.32680 | 34893 ft | 478 kts | 316° |
| 2026-05-04 13:06 | 19.69104 | 94.28736 | 34901 ft | 478 kts | 316° |
| 2026-05-04 13:07 | 19.74822 | 94.23222 | 34893 ft | 478 kts | 316° |
| 2026-05-04 13:07 | 19.78945 | 94.19244 | 34899 ft | 477 kts | 316° |
| 2026-05-04 13:08 | 19.83821 | 94.14534 | 34901 ft | 477 kts | 315° |
| 2026-05-04 13:08 | 19.88727 | 94.09791 | 34900 ft | 477 kts | 315° |
| 2026-05-04 13:09 | 19.94426 | 94.04278 | 34895 ft | 476 kts | 315° |
| 2026-05-04 13:09 | 19.98527 | 94.00306 | 34897 ft | 476 kts | 315° |
| 2026-05-04 13:10 | 20.03386 | 93.95597 | 34899 ft | 476 kts | 315° |
| 2026-05-04 13:10 | 20.08277 | 93.90852 | 34895 ft | 476 kts | 315° |
| 2026-05-04 13:11 | 20.13162 | 93.86108 | 34903 ft | 476 kts | 315° |
| 2026-05-04 13:11 | 20.18047 | 93.81361 | 34898 ft | 476 kts | 315° |
| 2026-05-04 13:12 | 20.22894 | 93.76648 | 34900 ft | 475 kts | 315° |
| 2026-05-04 13:12 | 20.27770 | 93.71901 | 34908 ft | 475 kts | 315° |
| 2026-05-04 13:13 | 20.32643 | 93.67152 | 34905 ft | 475 kts | 315° |
| 2026-05-04 13:13 | 20.37522 | 93.62394 | 34907 ft | 475 kts | 315° |
| 2026-05-04 13:14 | 20.42400 | 93.57632 | 34908 ft | 476 kts | 315° |
| 2026-05-04 13:14 | 20.47248 | 93.52896 | 34904 ft | 476 kts | 315° |
| 2026-05-04 13:15 | 20.52124 | 93.48127 | 34912 ft | 476 kts | 315° |
| 2026-05-04 13:15 | 20.56999 | 93.43356 | 34907 ft | 476 kts | 315° |
| 2026-05-04 13:16 | 20.61876 | 93.38579 | 34905 ft | 476 kts | 315° |
| 2026-05-04 13:16 | 20.66716 | 93.33832 | 34906 ft | 476 kts | 315° |
| 2026-05-04 13:17 | 20.71588 | 93.29051 | 34902 ft | 476 kts | 315° |
| 2026-05-04 13:17 | 20.76456 | 93.24270 | 34903 ft | 475 kts | 315° |
| 2026-05-04 13:18 | 20.81319 | 93.19488 | 34905 ft | 475 kts | 315° |
| 2026-05-04 13:18 | 20.86178 | 93.14706 | 34904 ft | 475 kts | 315° |
| 2026-05-04 13:19 | 20.90999 | 93.09957 | 34903 ft | 474 kts | 315° |
| 2026-05-04 13:19 | 20.95847 | 93.05177 | 34906 ft | 474 kts | 315° |
| 2026-05-04 13:20 | 21.00692 | 93.00396 | 34908 ft | 474 kts | 315° |
| 2026-05-04 13:20 | 21.05534 | 92.95613 | 34904 ft | 473 kts | 315° |
| 2026-05-04 13:21 | 21.10337 | 92.90864 | 34903 ft | 473 kts | 315° |
| 2026-05-04 13:21 | 21.15170 | 92.86081 | 34910 ft | 473 kts | 314° |
| 2026-05-04 13:22 | 21.20003 | 92.81294 | 34906 ft | 473 kts | 314° |
| 2026-05-04 13:22 | 21.24826 | 92.76513 | 34911 ft | 472 kts | 314° |
| 2026-05-04 13:23 | 21.29618 | 92.71757 | 34908 ft | 473 kts | 314° |
| 2026-05-04 13:23 | 21.34442 | 92.66964 | 34912 ft | 473 kts | 314° |
| 2026-05-04 13:24 | 21.39262 | 92.62172 | 34917 ft | 473 kts | 314° |
| 2026-05-04 13:24 | 21.44093 | 92.57364 | 34911 ft | 473 kts | 314° |
| 2026-05-04 13:25 | 21.51299 | 92.50185 | 34917 ft | 473 kts | 314° |
| 2026-05-04 13:25 | 21.56119 | 92.45375 | 34917 ft | 473 kts | 314° |
| 2026-05-04 13:26 | 21.60945 | 92.40555 | 34900 ft | 473 kts | 314° |
| 2026-05-04 13:26 | 21.65767 | 92.35736 | 34913 ft | 473 kts | 314° |
| 2026-05-04 13:27 | 21.70790 | 92.31159 | 34913 ft | 474 kts | 318° |
| 2026-05-04 13:27 | 21.75948 | 92.26742 | 34914 ft | 474 kts | 318° |
| 2026-05-04 13:28 | 21.81067 | 92.22335 | 34915 ft | 474 kts | 318° |
| 2026-05-04 13:28 | 21.86192 | 92.17884 | 34908 ft | 473 kts | 317° |
| 2026-05-04 13:29 | 21.91314 | 92.13426 | 34915 ft | 473 kts | 317° |
| 2026-05-04 13:29 | 21.96425 | 92.08963 | 34910 ft | 473 kts | 317° |
| 2026-05-04 13:30 | 22.01505 | 92.04449 | 34900 ft | 473 kts | 317° |
| 2026-05-04 13:30 | 22.06542 | 91.99960 | 34890 ft | 473 kts | 317° |
| 2026-05-04 13:31 | 22.11615 | 91.95444 | 34875 ft | 473 kts | 317° |
| 2026-05-04 13:31 | 22.16700 | 91.90917 | 34866 ft | 474 kts | 317° |
| 2026-05-04 13:32 | 22.21780 | 91.86388 | 34859 ft | 474 kts | 317° |
| 2026-05-04 13:32 | 22.26827 | 91.81885 | 34859 ft | 474 kts | 317° |
| 2026-05-04 13:33 | 22.31895 | 91.77321 | 34857 ft | 474 kts | 316° |
| 2026-05-04 13:33 | 22.36954 | 91.72749 | 34864 ft | 474 kts | 316° |
| 2026-05-04 13:34 | 22.42010 | 91.68178 | 34875 ft | 474 kts | 316° |
| 2026-05-04 13:34 | 22.47039 | 91.63631 | 34888 ft | 474 kts | 316° |
| 2026-05-04 13:35 | 22.54626 | 91.56760 | 34896 ft | 474 kts | 316° |
| 2026-05-04 13:36 | 22.59685 | 91.52177 | 34891 ft | 475 kts | 316° |
| 2026-05-04 13:36 | 22.64758 | 91.47587 | 34361 ft | 484 kts | 316° |
| 2026-05-04 13:36 | 22.67369 | 91.45222 | 33521 ft | 488 kts | 316° |
| 2026-05-04 13:37 | 22.69972 | 91.42865 | 32598 ft | 489 kts | 316° |
| 2026-05-04 13:37 | 22.72544 | 91.40535 | 31685 ft | 489 kts | 316° |
| 2026-05-04 13:37 | 22.75154 | 91.38170 | 30739 ft | 490 kts | 316° |
| 2026-05-04 13:37 | 22.77770 | 91.35797 | 30031 ft | 487 kts | 316° |
| 2026-05-04 13:38 | 22.80357 | 91.33449 | 29255 ft | 483 kts | 316° |
| 2026-05-04 13:38 | 22.82918 | 91.31124 | 28551 ft | 478 kts | 316° |
| 2026-05-04 13:38 | 22.85453 | 91.28820 | 27898 ft | 474 kts | 316° |
| 2026-05-04 13:38 | 22.87969 | 91.26535 | 27265 ft | 469 kts | 317° |
| 2026-05-04 13:39 | 22.90460 | 91.24274 | 26647 ft | 465 kts | 317° |
| 2026-05-04 13:39 | 22.92937 | 91.22026 | 26037 ft | 462 kts | 317° |
| 2026-05-04 13:39 | 22.95389 | 91.19799 | 25424 ft | 458 kts | 317° |
| 2026-05-04 13:39 | 22.97790 | 91.17616 | 24820 ft | 456 kts | 317° |
| 2026-05-04 13:40 | 23.00214 | 91.15410 | 24215 ft | 454 kts | 317° |
| 2026-05-04 13:40 | 23.02626 | 91.13215 | 23619 ft | 452 kts | 317° |
| 2026-05-04 13:40 | 23.05027 | 91.11028 | 22936 ft | 450 kts | 317° |
| 2026-05-04 13:40 | 23.07411 | 91.08855 | 22306 ft | 446 kts | 317° |
| 2026-05-04 13:41 | 23.09778 | 91.06698 | 21743 ft | 442 kts | 317° |
| 2026-05-04 13:41 | 23.12119 | 91.04563 | 21150 ft | 437 kts | 317° |
| 2026-05-04 13:41 | 23.14437 | 91.02448 | 20584 ft | 433 kts | 317° |
| 2026-05-04 13:42 | 23.18987 | 90.98298 | 19499 ft | 427 kts | 318° |
| 2026-05-04 13:42 | 23.21265 | 90.96247 | 18931 ft | 424 kts | 318° |
| 2026-05-04 13:42 | 23.23538 | 90.94214 | 18364 ft | 422 kts | 318° |
| 2026-05-04 13:42 | 23.25805 | 90.92185 | 17766 ft | 420 kts | 318° |
| 2026-05-04 13:43 | 23.28051 | 90.90171 | 17183 ft | 417 kts | 318° |
| 2026-05-04 13:43 | 23.30277 | 90.88171 | 16624 ft | 414 kts | 318° |
| 2026-05-04 13:43 | 23.32484 | 90.86188 | 16088 ft | 410 kts | 318° |
| 2026-05-04 13:43 | 23.34649 | 90.84240 | 15544 ft | 407 kts | 319° |
| 2026-05-04 13:44 | 23.36826 | 90.82288 | 15020 ft | 405 kts | 319° |
| 2026-05-04 13:44 | 23.38996 | 90.80343 | 14494 ft | 402 kts | 319° |
| 2026-05-04 13:44 | 23.41149 | 90.78413 | 13969 ft | 400 kts | 319° |
| 2026-05-04 13:44 | 23.43289 | 90.76492 | 13457 ft | 397 kts | 319° |
| 2026-05-04 13:45 | 23.45407 | 90.74590 | 12975 ft | 393 kts | 319° |
| 2026-05-04 13:45 | 23.47496 | 90.72713 | 12563 ft | 385 kts | 319° |
| 2026-05-04 13:45 | 23.49552 | 90.70866 | 11899 ft | 384 kts | 319° |
| 2026-05-04 13:45 | 23.51586 | 90.69038 | 11346 ft | 382 kts | 320° |
| 2026-05-04 13:46 | 23.53623 | 90.67209 | 10923 ft | 375 kts | 320° |
| 2026-05-04 13:46 | 23.55604 | 90.65432 | 10738 ft | 362 kts | 320° |
| 2026-05-04 13:46 | 23.57509 | 90.63721 | 10564 ft | 349 kts | 320° |
| 2026-05-04 13:46 | 23.59349 | 90.62068 | 10415 ft | 336 kts | 320° |
| 2026-05-04 13:47 | 23.61120 | 90.60476 | 10267 ft | 324 kts | 320° |
| 2026-05-04 13:47 | 23.62830 | 90.58939 | 10139 ft | 312 kts | 320° |
| 2026-05-04 13:47 | 23.64474 | 90.57461 | 10007 ft | 301 kts | 320° |
| 2026-05-04 13:47 | 23.66059 | 90.56036 | 9881 ft | 289 kts | 320° |
| 2026-05-04 13:48 | 23.67596 | 90.54652 | 9560 ft | 286 kts | 320° |
| 2026-05-04 13:48 | 23.69100 | 90.53298 | 9227 ft | 282 kts | 320° |
| 2026-05-04 13:48 | 23.70598 | 90.51948 | 8898 ft | 278 kts | 320° |
| 2026-05-04 13:48 | 23.72078 | 90.50616 | 8582 ft | 274 kts | 320° |
| 2026-05-04 13:49 | 23.73536 | 90.49301 | 8264 ft | 270 kts | 320° |
| 2026-05-04 13:49 | 23.74969 | 90.48008 | 7952 ft | 265 kts | 319° |
| 2026-05-04 13:49 | 23.76378 | 90.46736 | 7662 ft | 261 kts | 319° |
| 2026-05-04 13:49 | 23.77764 | 90.45487 | 7349 ft | 257 kts | 319° |
| 2026-05-04 13:50 | 23.79116 | 90.44267 | 7042 ft | 256 kts | 319° |
| 2026-05-04 13:50 | 23.80503 | 90.43015 | 6779 ft | 262 kts | 319° |
| 2026-05-04 13:50 | 23.81923 | 90.41737 | 6525 ft | 266 kts | 321° |
| 2026-05-04 13:50 | 23.83533 | 90.40745 | 6230 ft | 268 kts | 337° |
| 2026-05-04 13:51 | 23.85312 | 90.40085 | 5946 ft | 272 kts | 341° |
| 2026-05-04 13:51 | 23.87120 | 90.39478 | 5626 ft | 272 kts | 341° |
| 2026-05-04 13:51 | 23.88913 | 90.38870 | 5312 ft | 268 kts | 341° |
| 2026-05-04 13:51 | 23.90643 | 90.38269 | 4996 ft | 257 kts | 340° |
| 2026-05-04 13:52 | 23.93817 | 90.37131 | 4398 ft | 221 kts | 340° |
| 2026-05-04 13:52 | 23.95236 | 90.36613 | 4247 ft | 215 kts | 340° |
| 2026-05-04 13:52 | 23.96615 | 90.36110 | 4057 ft | 199 kts | 340° |
| 2026-05-04 13:53 | 23.97879 | 90.35650 | 3983 ft | 189 kts | 340° |
| 2026-05-04 13:53 | 23.99118 | 90.35104 | 3883 ft | 190 kts | 324° |
| 2026-05-04 13:53 | 23.99972 | 90.34081 | 3679 ft | 176 kts | 292° |
| 2026-05-04 13:54 | 23.99908 | 90.31658 | 3381 ft | 157 kts | 240° |
| 2026-05-04 13:54 | 23.99256 | 90.30740 | 3210 ft | 152 kts | 219° |
| 2026-05-04 13:54 | 23.97309 | 90.30111 | 2790 ft | 151 kts | 167° |
| 2026-05-04 13:55 | 23.96366 | 90.30609 | 2625 ft | 153 kts | 152° |
| 2026-05-04 13:55 | 23.94506 | 90.31757 | 2165 ft | 151 kts | 149° |
| 2026-05-04 13:55 | 23.93640 | 90.32381 | 2058 ft | 148 kts | 145° |
| 2026-05-04 13:56 | 23.92789 | 90.33046 | 2035 ft | 152 kts | 144° |
| 2026-05-04 13:56 | 23.91934 | 90.33724 | 1986 ft | 153 kts | 144° |
| 2026-05-04 13:56 | 23.90215 | 90.35096 | 1546 ft | 154 kts | 143° |
| 2026-05-04 13:57 | 23.89364 | 90.35775 | 1154 ft | 149 kts | 143° |
| 2026-05-04 13:57 | 23.88534 | 90.36436 | 791 ft | 147 kts | 142° |
| 2026-05-04 13:58 | 23.86044 | 90.38407 | 213 ft | 147 kts | 143° |
| 2026-05-04 13:58 | 23.84520 | 90.39633 | 41 ft | 105 kts | 143° |
| 2026-05-04 13:58 | 23.84056 | 90.40002 | 41 ft | 62 kts | 145° |
| 2026-05-04 13:59 | 23.83838 | 90.40192 | 43 ft | 19 kts | 135° |
| 2026-05-04 13:59 | 23.83768 | 90.40293 | 40 ft | 17 kts | 114° |
| 2026-05-04 13:59 | 23.83700 | 90.40531 | 40 ft | 17 kts | 92° |
| 2026-05-04 14:00 | 23.83730 | 90.40651 | 40 ft | 17 kts | 61° |
| 2026-05-04 14:00 | 23.83893 | 90.40794 | 40 ft | 17 kts | 333° |
| 2026-05-04 14:00 | 23.83989 | 90.40723 | 40 ft | 17 kts | 325° |
| 2026-05-04 14:01 | 23.84082 | 90.40651 | 40 ft | 17 kts | 324° |
| 2026-05-04 14:01 | 23.84174 | 90.40574 | 40 ft | 17 kts | 323° |
| 2026-05-04 14:01 | 23.84362 | 90.40427 | 40 ft | 17 kts | 323° |
| 2026-05-04 14:02 | 23.84454 | 90.40350 | 40 ft | 17 kts | 323° |
| 2026-05-04 14:02 | 23.84549 | 90.40277 | 40 ft | 17 kts | 324° |
| 2026-05-04 14:02 | 23.84643 | 90.40203 | 39 ft | 17 kts | 324° |
| 2026-05-04 14:02 | 23.84736 | 90.40129 | 40 ft | 17 kts | 324° |
| 2026-05-04 14:03 | 23.84830 | 90.40054 | 40 ft | 17 kts | 323° |
| 2026-05-04 14:03 | 23.84923 | 90.39980 | 40 ft | 17 kts | 324° |
| 2026-05-04 14:03 | 23.85016 | 90.39907 | 40 ft | 17 kts | 324° |
| 2026-05-04 14:03 | 23.85109 | 90.39833 | 40 ft | 17 kts | 324° |
| 2026-05-04 14:04 | 23.85297 | 90.39685 | 40 ft | 17 kts | 324° |
| 2026-05-04 14:04 | 23.85391 | 90.39612 | 40 ft | 17 kts | 325° |
| 2026-05-04 14:04 | 23.85481 | 90.39633 | 40 ft | 14 kts | 54° |
| 2026-05-04 14:05 | 23.85630 | 90.39641 | 40 ft | 14 kts | 303° |
| 2026-05-04 14:05 | 23.85620 | 90.39597 | 40 ft | 6 kts | 234° |
| 2026-05-04 14:05 | 23.85605 | 90.39575 | 40 ft | 2 kts | 234° |
| 2026-05-04 14:06 | 23.85601 | 90.39569 | 40 ft | 0 kts | 234° |